Alt de Magueyes, Puerto Rico
Current Conditions -  °F | °C
As of 12:50 PM on Monday 26 Jan 2015 (Local Time) from TJPS Reporting Station
Few Clouds Few Clouds  
Wind Chill: 30°   Ceiling: Unl
Heat Index: 33°   Visibility: 10mi
Dew Point: 22°   Wind: 12mph
Humidity: 62%   Direction: 150°SSE
Pressure: 29.97"   Gusts: NA
Location:  17.9715°N, 66.9368°W
Report Text: TJPS 261650Z 15010KT 10SM FEW030 30/22 A2997
Loading
Personal Weather Stations






























Interactive Weather Map New forecast layout! Learn more

10-Day Weather Forecast

Advertisements
Track Severe Weather on mobile